sensor_id;sensor_type;location;lat;lon;timestamp;temperature;humidity
61916;DHT22;47868;51.326;6.550;2022-11-14T00:00:13;7.70;99.90
61916;DHT22;47868;51.326;6.550;2022-11-14T00:02:39;7.70;99.90
61916;DHT22;47868;51.326;6.550;2022-11-14T00:05:06;7.60;99.90
61916;DHT22;47868;51.326;6.550;2022-11-14T00:07:33;7.60;99.90
61916;DHT22;47868;51.326;6.550;2022-11-14T00:09:59;7.60;99.90
61916;DHT22;47868;51.326;6.550;2022-11-14T00:12:25;7.60;99.90
61916;DHT22;47868;51.326;6.550;2022-11-14T00:14:50;7.60;99.90
61916;DHT22;47868;51.326;6.550;2022-11-14T00:17:16;7.60;99.90
61916;DHT22;47868;51.326;6.550;2022-11-14T00:19:42;7.50;99.90
61916;DHT22;47868;51.326;6.550;2022-11-14T00:22:08;7.50;99.90
61916;DHT22;47868;51.326;6.550;2022-11-14T00:24:34;7.50;99.90
61916;DHT22;47868;51.326;6.550;2022-11-14T00:26:59;7.40;99.90
61916;DHT22;47868;51.326;6.550;2022-11-14T00:29:25;7.40;99.90
61916;DHT22;47868;51.326;6.550;2022-11-14T00:31:51;7.40;99.90
61916;DHT22;47868;51.326;6.550;2022-11-14T00:34:16;7.40;99.90
61916;DHT22;47868;51.326;6.550;2022-11-14T00:36:42;7.40;99.90
61916;DHT22;47868;51.326;6.550;2022-11-14T00:39:11;7.50;99.90
61916;DHT22;47868;51.326;6.550;2022-11-14T00:41:38;7.40;99.90
61916;DHT22;47868;51.326;6.550;2022-11-14T00:44:03;7.40;99.90
61916;DHT22;47868;51.326;6.550;2022-11-14T00:46:29;7.40;99.90
61916;DHT22;47868;51.326;6.550;2022-11-14T00:48:54;7.40;99.90
61916;DHT22;47868;51.326;6.550;2022-11-14T00:51:20;7.30;99.90
61916;DHT22;47868;51.326;6.550;2022-11-14T00:53:46;7.30;99.90
61916;DHT22;47868;51.326;6.550;2022-11-14T00:56:11;7.30;99.90
61916;DHT22;47868;51.326;6.550;2022-11-14T00:58:37;7.30;99.90
61916;DHT22;47868;51.326;6.550;2022-11-14T01:01:02;7.30;99.90
61916;DHT22;47868;51.326;6.550;2022-11-14T01:03:28;7.30;99.90
61916;DHT22;47868;51.326;6.550;2022-11-14T01:05:54;7.30;99.90
61916;DHT22;47868;51.326;6.550;2022-11-14T01:08:19;7.30;99.90
61916;DHT22;47868;51.326;6.550;2022-11-14T01:10:48;7.30;99.90
61916;DHT22;47868;51.326;6.550;2022-11-14T01:13:14;7.40;99.90
61916;DHT22;47868;51.326;6.550;2022-11-14T01:15:45;7.30;99.90
61916;DHT22;47868;51.326;6.550;2022-11-14T01:18:14;7.40;99.90
61916;DHT22;47868;51.326;6.550;2022-11-14T01:20:41;7.40;99.90
61916;DHT22;47868;51.326;6.550;2022-11-14T01:23:09;7.40;99.90
61916;DHT22;47868;51.326;6.550;2022-11-14T01:25:36;7.40;99.90
61916;DHT22;47868;51.326;6.550;2022-11-14T01:28:06;7.40;99.90
61916;DHT22;47868;51.326;6.550;2022-11-14T01:30:32;7.40;99.90
61916;DHT22;47868;51.326;6.550;2022-11-14T01:32:58;7.50;99.90
61916;DHT22;47868;51.326;6.550;2022-11-14T01:35:23;7.50;99.90
61916;DHT22;47868;51.326;6.550;2022-11-14T01:37:49;7.50;99.90
61916;DHT22;47868;51.326;6.550;2022-11-14T01:40:15;7.50;99.90
61916;DHT22;47868;51.326;6.550;2022-11-14T01:42:40;7.50;99.90
61916;DHT22;47868;51.326;6.550;2022-11-14T01:48:21;7.40;99.90
61916;DHT22;47868;51.326;6.550;2022-11-14T01:50:54;7.50;99.90
61916;DHT22;47868;51.326;6.550;2022-11-14T01:53:20;7.40;99.90
61916;DHT22;47868;51.326;6.550;2022-11-14T01:55:45;7.40;99.90
61916;DHT22;47868;51.326;6.550;2022-11-14T01:58:12;7.50;99.90
61916;DHT22;47868;51.326;6.550;2022-11-14T02:00:37;7.50;99.90
61916;DHT22;47868;51.326;6.550;2022-11-14T02:03:03;7.50;99.90
61916;DHT22;47868;51.326;6.550;2022-11-14T02:05:29;7.50;99.90
61916;DHT22;47868;51.326;6.550;2022-11-14T02:07:56;7.50;99.90
61916;DHT22;47868;51.326;6.550;2022-11-14T02:10:22;7.30;99.90
61916;DHT22;47868;51.326;6.550;2022-11-14T02:12:48;7.30;99.90
61916;DHT22;47868;51.326;6.550;2022-11-14T02:15:15;7.20;99.90
61916;DHT22;47868;51.326;6.550;2022-11-14T02:17:42;7.20;99.90
61916;DHT22;47868;51.326;6.550;2022-11-14T02:22:38;7.10;99.90
61916;DHT22;47868;51.326;6.550;2022-11-14T02:25:05;7.00;99.90
61916;DHT22;47868;51.326;6.550;2022-11-14T02:27:32;7.10;99.90
61916;DHT22;47868;51.326;6.550;2022-11-14T02:30:13;7.00;99.90
61916;DHT22;47868;51.326;6.550;2022-11-14T02:32:39;7.10;99.90
61916;DHT22;47868;51.326;6.550;2022-11-14T02:35:05;7.00;99.90
61916;DHT22;47868;51.326;6.550;2022-11-14T02:37:31;7.00;99.90
61916;DHT22;47868;51.326;6.550;2022-11-14T02:39:56;7.00;99.90
61916;DHT22;47868;51.326;6.550;2022-11-14T02:42:22;7.00;99.90
61916;DHT22;47868;51.326;6.550;2022-11-14T02:44:48;7.00;99.90
61916;DHT22;47868;51.326;6.550;2022-11-14T02:47:13;7.00;99.90
61916;DHT22;47868;51.326;6.550;2022-11-14T02:49:39;7.00;99.90
61916;DHT22;47868;51.326;6.550;2022-11-14T02:52:04;6.90;99.90
61916;DHT22;47868;51.326;6.550;2022-11-14T02:54:30;7.00;99.90
61916;DHT22;47868;51.326;6.550;2022-11-14T02:56:56;7.00;99.90
61916;DHT22;47868;51.326;6.550;2022-11-14T02:59:21;7.00;99.90
61916;DHT22;47868;51.326;6.550;2022-11-14T03:01:47;7.00;99.90
61916;DHT22;47868;51.326;6.550;2022-11-14T03:04:13;7.00;99.90
61916;DHT22;47868;51.326;6.550;2022-11-14T03:06:38;7.00;99.90
61916;DHT22;47868;51.326;6.550;2022-11-14T03:09:04;7.00;99.90
61916;DHT22;47868;51.326;6.550;2022-11-14T03:11:30;7.00;99.90
61916;DHT22;47868;51.326;6.550;2022-11-14T03:13:55;7.10;99.90
61916;DHT22;47868;51.326;6.550;2022-11-14T03:16:21;7.10;99.90
61916;DHT22;47868;51.326;6.550;2022-11-14T03:18:47;7.10;99.90
61916;DHT22;47868;51.326;6.550;2022-11-14T03:21:15;7.10;99.90
61916;DHT22;47868;51.326;6.550;2022-11-14T03:23:41;7.10;99.90
61916;DHT22;47868;51.326;6.550;2022-11-14T03:26:08;7.10;99.90
61916;DHT22;47868;51.326;6.550;2022-11-14T03:28:35;7.10;99.90
61916;DHT22;47868;51.326;6.550;2022-11-14T03:31:01;7.10;99.90
61916;DHT22;47868;51.326;6.550;2022-11-14T03:33:26;7.10;99.90
61916;DHT22;47868;51.326;6.550;2022-11-14T03:35:52;7.10;99.90
61916;DHT22;47868;51.326;6.550;2022-11-14T03:38:19;7.10;99.90
61916;DHT22;47868;51.326;6.550;2022-11-14T03:40:48;7.10;99.90
61916;DHT22;47868;51.326;6.550;2022-11-14T03:43:15;7.10;99.90
61916;DHT22;47868;51.326;6.550;2022-11-14T03:45:40;7.10;99.90
61916;DHT22;47868;51.326;6.550;2022-11-14T03:48:06;7.10;99.90
61916;DHT22;47868;51.326;6.550;2022-11-14T03:50:32;7.10;99.90
61916;DHT22;47868;51.326;6.550;2022-11-14T03:52:58;7.10;99.90
61916;DHT22;47868;51.326;6.550;2022-11-14T03:55:24;7.10;99.90
61916;DHT22;47868;51.326;6.550;2022-11-14T03:57:49;7.10;99.90
61916;DHT22;47868;51.326;6.550;2022-11-14T04:00:15;7.10;99.90
61916;DHT22;47868;51.326;6.550;2022-11-14T04:02:41;7.10;99.90
61916;DHT22;47868;51.326;6.550;2022-11-14T04:05:07;7.10;99.90
61916;DHT22;47868;51.326;6.550;2022-11-14T04:07:33;7.00;99.90
61916;DHT22;47868;51.326;6.550;2022-11-14T04:09:58;7.00;99.90
61916;DHT22;47868;51.326;6.550;2022-11-14T04:12:24;7.10;99.90
61916;DHT22;47868;51.326;6.550;2022-11-14T04:14:49;7.00;99.90
61916;DHT22;47868;51.326;6.550;2022-11-14T04:17:15;7.10;99.90
61916;DHT22;47868;51.326;6.550;2022-11-14T04:19:40;7.10;99.90
61916;DHT22;47868;51.326;6.550;2022-11-14T04:22:06;7.10;99.90
61916;DHT22;47868;51.326;6.550;2022-11-14T04:24:32;7.10;99.90
61916;DHT22;47868;51.326;6.550;2022-11-14T04:26:58;7.10;99.90
61916;DHT22;47868;51.326;6.550;2022-11-14T04:29:23;7.10;99.90
61916;DHT22;47868;51.326;6.550;2022-11-14T04:31:49;7.20;99.90
61916;DHT22;47868;51.326;6.550;2022-11-14T04:34:14;7.20;99.90
61916;DHT22;47868;51.326;6.550;2022-11-14T04:36:40;7.20;99.90
61916;DHT22;47868;51.326;6.550;2022-11-14T04:39:06;7.20;99.90
61916;DHT22;47868;51.326;6.550;2022-11-14T04:41:31;7.30;99.90
61916;DHT22;47868;51.326;6.550;2022-11-14T04:43:57;7.30;99.90
61916;DHT22;47868;51.326;6.550;2022-11-14T04:46:22;7.30;99.90
61916;DHT22;47868;51.326;6.550;2022-11-14T04:48:48;7.30;99.90
61916;DHT22;47868;51.326;6.550;2022-11-14T04:51:14;7.20;99.90
61916;DHT22;47868;51.326;6.550;2022-11-14T04:53:39;7.20;99.90
61916;DHT22;47868;51.326;6.550;2022-11-14T04:56:05;7.20;99.90
61916;DHT22;47868;51.326;6.550;2022-11-14T04:58:31;7.20;99.90
61916;DHT22;47868;51.326;6.550;2022-11-14T05:00:56;7.20;99.90
61916;DHT22;47868;51.326;6.550;2022-11-14T05:03:23;7.20;99.90
61916;DHT22;47868;51.326;6.550;2022-11-14T05:05:49;7.10;99.90
61916;DHT22;47868;51.326;6.550;2022-11-14T05:08:15;7.10;99.90
61916;DHT22;47868;51.326;6.550;2022-11-14T05:10:43;7.10;99.90
61916;DHT22;47868;51.326;6.550;2022-11-14T05:13:10;7.10;99.90
61916;DHT22;47868;51.326;6.550;2022-11-14T05:15:36;7.10;99.90
61916;DHT22;47868;51.326;6.550;2022-11-14T05:18:01;7.00;99.90
61916;DHT22;47868;51.326;6.550;2022-11-14T05:20:27;7.00;99.90
61916;DHT22;47868;51.326;6.550;2022-11-14T05:22:54;7.00;99.90
61916;DHT22;47868;51.326;6.550;2022-11-14T05:25:21;7.00;99.90
61916;DHT22;47868;51.326;6.550;2022-11-14T05:27:47;7.00;99.90
61916;DHT22;47868;51.326;6.550;2022-11-14T05:30:13;6.90;99.90
61916;DHT22;47868;51.326;6.550;2022-11-14T05:32:39;6.90;99.90
61916;DHT22;47868;51.326;6.550;2022-11-14T05:35:05;6.90;99.90
61916;DHT22;47868;51.326;6.550;2022-11-14T05:37:32;6.90;99.90
61916;DHT22;47868;51.326;6.550;2022-11-14T05:39:58;6.80;99.90
61916;DHT22;47868;51.326;6.550;2022-11-14T05:42:23;6.80;99.90
61916;DHT22;47868;51.326;6.550;2022-11-14T05:44:49;6.90;99.90
61916;DHT22;47868;51.326;6.550;2022-11-14T05:47:15;6.90;99.90
61916;DHT22;47868;51.326;6.550;2022-11-14T05:49:41;6.90;99.90
61916;DHT22;47868;51.326;6.550;2022-11-14T05:52:06;6.90;99.90
61916;DHT22;47868;51.326;6.550;2022-11-14T05:54:32;6.90;99.90
61916;DHT22;47868;51.326;6.550;2022-11-14T05:56:57;6.80;99.90
61916;DHT22;47868;51.326;6.550;2022-11-14T05:59:23;6.80;99.90
61916;DHT22;47868;51.326;6.550;2022-11-14T06:01:49;6.80;99.90
61916;DHT22;47868;51.326;6.550;2022-11-14T06:04:14;6.80;99.90
61916;DHT22;47868;51.326;6.550;2022-11-14T06:06:40;6.80;99.90
61916;DHT22;47868;51.326;6.550;2022-11-14T06:09:06;6.80;99.90
61916;DHT22;47868;51.326;6.550;2022-11-14T06:11:31;6.80;99.90
61916;DHT22;47868;51.326;6.550;2022-11-14T06:13:57;6.90;99.90
61916;DHT22;47868;51.326;6.550;2022-11-14T06:16:23;6.90;99.90
61916;DHT22;47868;51.326;6.550;2022-11-14T06:18:52;6.90;99.90
61916;DHT22;47868;51.326;6.550;2022-11-14T06:21:19;6.90;99.90
61916;DHT22;47868;51.326;6.550;2022-11-14T06:23:46;6.90;99.90
61916;DHT22;47868;51.326;6.550;2022-11-14T06:28:51;6.90;99.90
61916;DHT22;47868;51.326;6.550;2022-11-14T06:31:18;6.90;99.90
61916;DHT22;47868;51.326;6.550;2022-11-14T06:33:44;6.90;99.90
61916;DHT22;47868;51.326;6.550;2022-11-14T06:36:10;6.90;99.90
61916;DHT22;47868;51.326;6.550;2022-11-14T06:38:38;6.90;99.90
61916;DHT22;47868;51.326;6.550;2022-11-14T06:41:20;6.90;99.90
61916;DHT22;47868;51.326;6.550;2022-11-14T06:43:48;6.90;99.90
61916;DHT22;47868;51.326;6.550;2022-11-14T06:46:16;6.90;99.90
61916;DHT22;47868;51.326;6.550;2022-11-14T06:48:43;6.90;99.90
61916;DHT22;47868;51.326;6.550;2022-11-14T06:51:10;7.00;99.90
61916;DHT22;47868;51.326;6.550;2022-11-14T06:53:36;7.00;99.90
61916;DHT22;47868;51.326;6.550;2022-11-14T06:56:04;7.00;99.90
61916;DHT22;47868;51.326;6.550;2022-11-14T06:58:33;7.00;99.90
61916;DHT22;47868;51.326;6.550;2022-11-14T07:01:05;7.10;99.90
61916;DHT22;47868;51.326;6.550;2022-11-14T07:03:32;7.20;99.90
61916;DHT22;47868;51.326;6.550;2022-11-14T07:05:59;7.10;99.90
61916;DHT22;47868;51.326;6.550;2022-11-14T07:08:25;7.00;99.90
61916;DHT22;47868;51.326;6.550;2022-11-14T07:10:51;7.00;99.90
61916;DHT22;47868;51.326;6.550;2022-11-14T07:13:16;7.00;99.90
61916;DHT22;47868;51.326;6.550;2022-11-14T07:15:51;7.00;99.90
61916;DHT22;47868;51.326;6.550;2022-11-14T07:18:18;7.00;99.90
61916;DHT22;47868;51.326;6.550;2022-11-14T07:20:44;7.00;99.90
61916;DHT22;47868;51.326;6.550;2022-11-14T07:23:09;7.10;99.90
61916;DHT22;47868;51.326;6.550;2022-11-14T07:25:35;7.10;99.90
61916;DHT22;47868;51.326;6.550;2022-11-14T07:28:01;7.10;99.90
61916;DHT22;47868;51.326;6.550;2022-11-14T07:30:26;7.10;99.90
61916;DHT22;47868;51.326;6.550;2022-11-14T07:32:58;7.20;99.90
61916;DHT22;47868;51.326;6.550;2022-11-14T07:35:24;7.20;99.90
61916;DHT22;47868;51.326;6.550;2022-11-14T07:37:50;7.30;99.90
61916;DHT22;47868;51.326;6.550;2022-11-14T07:40:16;7.30;99.90
61916;DHT22;47868;51.326;6.550;2022-11-14T07:42:42;7.30;99.90
61916;DHT22;47868;51.326;6.550;2022-11-14T07:45:09;7.30;99.90
61916;DHT22;47868;51.326;6.550;2022-11-14T07:47:34;7.30;99.90
61916;DHT22;47868;51.326;6.550;2022-11-14T07:50:00;7.40;99.90
61916;DHT22;47868;51.326;6.550;2022-11-14T07:52:26;7.50;99.90
61916;DHT22;47868;51.326;6.550;2022-11-14T07:54:51;7.40;99.90
61916;DHT22;47868;51.326;6.550;2022-11-14T07:57:17;7.50;99.90
61916;DHT22;47868;51.326;6.550;2022-11-14T07:59:42;7.50;99.90
61916;DHT22;47868;51.326;6.550;2022-11-14T08:02:11;7.50;99.90
61916;DHT22;47868;51.326;6.550;2022-11-14T08:04:39;7.60;99.90
61916;DHT22;47868;51.326;6.550;2022-11-14T08:07:04;7.60;99.90
61916;DHT22;47868;51.326;6.550;2022-11-14T08:09:30;7.60;99.90
61916;DHT22;47868;51.326;6.550;2022-11-14T08:11:55;7.60;99.90
61916;DHT22;47868;51.326;6.550;2022-11-14T08:14:21;7.60;99.90
61916;DHT22;47868;51.326;6.550;2022-11-14T08:16:47;7.60;99.90
61916;DHT22;47868;51.326;6.550;2022-11-14T08:19:12;7.60;99.90
61916;DHT22;47868;51.326;6.550;2022-11-14T08:21:38;7.70;99.90
61916;DHT22;47868;51.326;6.550;2022-11-14T08:24:04;7.60;99.90
61916;DHT22;47868;51.326;6.550;2022-11-14T08:26:30;7.70;99.90
61916;DHT22;47868;51.326;6.550;2022-11-14T08:28:55;7.70;99.90
61916;DHT22;47868;51.326;6.550;2022-11-14T08:31:21;7.70;99.90
61916;DHT22;47868;51.326;6.550;2022-11-14T08:33:47;7.80;99.90
61916;DHT22;47868;51.326;6.550;2022-11-14T08:36:14;7.90;99.90
61916;DHT22;47868;51.326;6.550;2022-11-14T08:38:40;8.10;99.90
61916;DHT22;47868;51.326;6.550;2022-11-14T08:41:06;8.10;99.90
61916;DHT22;47868;51.326;6.550;2022-11-14T08:43:31;8.20;99.90
61916;DHT22;47868;51.326;6.550;2022-11-14T08:46:01;8.30;99.90
61916;DHT22;47868;51.326;6.550;2022-11-14T08:48:28;8.30;99.90
61916;DHT22;47868;51.326;6.550;2022-11-14T08:50:54;8.30;99.90
61916;DHT22;47868;51.326;6.550;2022-11-14T08:53:20;8.40;99.90
61916;DHT22;47868;51.326;6.550;2022-11-14T08:55:47;8.40;99.90
61916;DHT22;47868;51.326;6.550;2022-11-14T08:58:12;8.40;99.90
61916;DHT22;47868;51.326;6.550;2022-11-14T09:00:38;8.40;99.90
61916;DHT22;47868;51.326;6.550;2022-11-14T09:03:11;8.40;99.90
61916;DHT22;47868;51.326;6.550;2022-11-14T09:05:41;8.50;99.90
61916;DHT22;47868;51.326;6.550;2022-11-14T09:08:06;8.60;99.90
61916;DHT22;47868;51.326;6.550;2022-11-14T09:10:33;8.60;99.90
61916;DHT22;47868;51.326;6.550;2022-11-14T09:12:59;8.60;99.90
61916;DHT22;47868;51.326;6.550;2022-11-14T09:15:29;8.70;99.90
61916;DHT22;47868;51.326;6.550;2022-11-14T09:17:55;8.60;99.90
61916;DHT22;47868;51.326;6.550;2022-11-14T09:20:23;8.60;99.90
61916;DHT22;47868;51.326;6.550;2022-11-14T09:22:49;8.60;99.90
61916;DHT22;47868;51.326;6.550;2022-11-14T09:25:18;8.60;99.90
61916;DHT22;47868;51.326;6.550;2022-11-14T09:27:44;8.70;99.90
61916;DHT22;47868;51.326;6.550;2022-11-14T09:30:11;8.70;99.90
61916;DHT22;47868;51.326;6.550;2022-11-14T09:32:36;8.80;99.90
61916;DHT22;47868;51.326;6.550;2022-11-14T09:35:02;8.80;99.90
61916;DHT22;47868;51.326;6.550;2022-11-14T09:37:28;8.80;99.90
61916;DHT22;47868;51.326;6.550;2022-11-14T09:39:54;8.80;99.90
61916;DHT22;47868;51.326;6.550;2022-11-14T09:43:04;8.80;99.90
61916;DHT22;47868;51.326;6.550;2022-11-14T09:45:37;8.80;99.90
61916;DHT22;47868;51.326;6.550;2022-11-14T09:48:12;8.80;99.90
61916;DHT22;47868;51.326;6.550;2022-11-14T09:50:52;8.80;99.90
61916;DHT22;47868;51.326;6.550;2022-11-14T09:53:30;8.80;99.90
61916;DHT22;47868;51.326;6.550;2022-11-14T09:55:57;8.80;99.90
61916;DHT22;47868;51.326;6.550;2022-11-14T09:58:23;8.80;99.90
61916;DHT22;47868;51.326;6.550;2022-11-14T10:00:55;8.90;99.90
61916;DHT22;47868;51.326;6.550;2022-11-14T10:11:43;9.10;99.90
61916;DHT22;47868;51.326;6.550;2022-11-14T10:19:50;9.10;99.90
61916;DHT22;47868;51.326;6.550;2022-11-14T10:25:24;9.10;99.90
61916;DHT22;47868;51.326;6.550;2022-11-14T10:30:22;9.10;99.90
61916;DHT22;47868;51.326;6.550;2022-11-14T10:40:43;9.20;99.90
61916;DHT22;47868;51.326;6.550;2022-11-14T10:43:43;9.30;99.90
61916;DHT22;47868;51.326;6.550;2022-11-14T10:46:22;9.40;99.90
61916;DHT22;47868;51.326;6.550;2022-11-14T10:48:50;9.30;99.90
61916;DHT22;47868;51.326;6.550;2022-11-14T10:54:33;9.40;99.90
61916;DHT22;47868;51.326;6.550;2022-11-14T10:56:53;9.40;99.90
61916;DHT22;47868;51.326;6.550;2022-11-14T10:59:19;9.40;99.90
61916;DHT22;47868;51.326;6.550;2022-11-14T11:01:52;9.40;99.90
61916;DHT22;47868;51.326;6.550;2022-11-14T11:04:31;9.40;99.90
61916;DHT22;47868;51.326;6.550;2022-11-14T11:07:26;9.40;99.90
61916;DHT22;47868;51.326;6.550;2022-11-14T11:10:24;9.40;99.90
61916;DHT22;47868;51.326;6.550;2022-11-14T11:13:12;9.50;99.90
61916;DHT22;47868;51.326;6.550;2022-11-14T11:15:41;9.60;99.90
61916;DHT22;47868;51.326;6.550;2022-11-14T11:18:24;9.60;99.90
61916;DHT22;47868;51.326;6.550;2022-11-14T11:23:30;9.70;99.90
61916;DHT22;47868;51.326;6.550;2022-11-14T11:26:01;9.60;99.90
61916;DHT22;47868;51.326;6.550;2022-11-14T11:28:32;9.60;99.90
61916;DHT22;47868;51.326;6.550;2022-11-14T11:31:07;9.50;99.90
61916;DHT22;47868;51.326;6.550;2022-11-14T11:33:38;9.50;99.90
61916;DHT22;47868;51.326;6.550;2022-11-14T11:38:31;9.50;99.90
61916;DHT22;47868;51.326;6.550;2022-11-14T11:41:16;9.50;99.90
61916;DHT22;47868;51.326;6.550;2022-11-14T11:43:59;9.60;99.90
61916;DHT22;47868;51.326;6.550;2022-11-14T11:46:42;9.70;99.90
61916;DHT22;47868;51.326;6.550;2022-11-14T11:49:39;9.80;99.90
61916;DHT22;47868;51.326;6.550;2022-11-14T11:55:04;10.00;99.90
61916;DHT22;47868;51.326;6.550;2022-11-14T12:00:21;10.10;99.90
61916;DHT22;47868;51.326;6.550;2022-11-14T12:02:49;10.10;99.90
61916;DHT22;47868;51.326;6.550;2022-11-14T12:08:02;10.00;99.90
61916;DHT22;47868;51.326;6.550;2022-11-14T12:10:36;9.90;99.90
61916;DHT22;47868;51.326;6.550;2022-11-14T12:16:27;9.90;99.90
61916;DHT22;47868;51.326;6.550;2022-11-14T12:19:25;9.90;99.90
61916;DHT22;47868;51.326;6.550;2022-11-14T12:22:26;9.90;99.90
61916;DHT22;47868;51.326;6.550;2022-11-14T12:27:55;10.10;99.90
61916;DHT22;47868;51.326;6.550;2022-11-14T12:30:26;10.20;99.90
61916;DHT22;47868;51.326;6.550;2022-11-14T12:33:02;10.30;99.90
61916;DHT22;47868;51.326;6.550;2022-11-14T12:35:32;10.30;99.90
61916;DHT22;47868;51.326;6.550;2022-11-14T12:38:00;10.30;99.90
61916;DHT22;47868;51.326;6.550;2022-11-14T12:40:28;10.30;99.90
61916;DHT22;47868;51.326;6.550;2022-11-14T12:42:56;10.50;99.90
61916;DHT22;47868;51.326;6.550;2022-11-14T12:50:50;10.40;99.90
61916;DHT22;47868;51.326;6.550;2022-11-14T13:06:59;10.20;99.90
61916;DHT22;47868;51.326;6.550;2022-11-14T13:12:39;10.00;99.90
61916;DHT22;47868;51.326;6.550;2022-11-14T13:15:25;10.00;99.90
61916;DHT22;47868;51.326;6.550;2022-11-14T13:18:22;10.10;99.90
61916;DHT22;47868;51.326;6.550;2022-11-14T13:21:28;10.10;99.90
61916;DHT22;47868;51.326;6.550;2022-11-14T13:24:13;10.00;99.90
61916;DHT22;47868;51.326;6.550;2022-11-14T13:26:45;10.00;99.90
61916;DHT22;47868;51.326;6.550;2022-11-14T13:32:09;10.00;99.90
61916;DHT22;47868;51.326;6.550;2022-11-14T13:34:47;10.00;99.90
61916;DHT22;47868;51.326;6.550;2022-11-14T13:50:35;9.90;99.90
61916;DHT22;47868;51.326;6.550;2022-11-14T13:53:09;9.90;99.90
61916;DHT22;47868;51.326;6.550;2022-11-14T14:01:14;9.80;99.90
61916;DHT22;47868;51.326;6.550;2022-11-14T14:06:47;9.90;99.90
61916;DHT22;47868;51.326;6.550;2022-11-14T14:09:20;9.90;99.90
61916;DHT22;47868;51.326;6.550;2022-11-14T14:14:55;9.80;99.90
61916;DHT22;47868;51.326;6.550;2022-11-14T14:23:17;9.80;99.90
61916;DHT22;47868;51.326;6.550;2022-11-14T14:28:36;9.80;99.90
61916;DHT22;47868;51.326;6.550;2022-11-14T14:31:24;9.90;99.90
61916;DHT22;47868;51.326;6.550;2022-11-14T14:33:55;9.90;99.90
61916;DHT22;47868;51.326;6.550;2022-11-14T14:36:23;9.90;99.90
61916;DHT22;47868;51.326;6.550;2022-11-14T14:39:05;9.80;99.90
61916;DHT22;47868;51.326;6.550;2022-11-14T14:41:33;9.80;99.90
61916;DHT22;47868;51.326;6.550;2022-11-14T14:44:00;9.80;99.90
61916;DHT22;47868;51.326;6.550;2022-11-14T14:46:30;9.80;99.90
61916;DHT22;47868;51.326;6.550;2022-11-14T14:48:59;9.80;99.90
61916;DHT22;47868;51.326;6.550;2022-11-14T14:51:34;9.80;99.90
61916;DHT22;47868;51.326;6.550;2022-11-14T14:54:01;9.80;99.90
61916;DHT22;47868;51.326;6.550;2022-11-14T14:56:27;9.80;99.90
61916;DHT22;47868;51.326;6.550;2022-11-14T14:58:53;9.80;99.90
61916;DHT22;47868;51.326;6.550;2022-11-14T15:01:26;9.80;99.90
61916;DHT22;47868;51.326;6.550;2022-11-14T15:04:01;9.90;99.90
61916;DHT22;47868;51.326;6.550;2022-11-14T15:06:31;9.80;99.90
61916;DHT22;47868;51.326;6.550;2022-11-14T15:09:01;9.80;99.90
61916;DHT22;47868;51.326;6.550;2022-11-14T15:11:27;9.80;99.90
61916;DHT22;47868;51.326;6.550;2022-11-14T15:13:56;9.80;99.90
61916;DHT22;47868;51.326;6.550;2022-11-14T15:16:23;9.80;99.90
61916;DHT22;47868;51.326;6.550;2022-11-14T15:18:51;9.80;99.90
61916;DHT22;47868;51.326;6.550;2022-11-14T15:26:36;9.80;99.90
61916;DHT22;47868;51.326;6.550;2022-11-14T15:29:20;9.80;99.90
61916;DHT22;47868;51.326;6.550;2022-11-14T15:31:57;9.80;99.90
61916;DHT22;47868;51.326;6.550;2022-11-14T15:34:31;9.80;99.90
61916;DHT22;47868;51.326;6.550;2022-11-14T15:39:38;9.70;99.90
61916;DHT22;47868;51.326;6.550;2022-11-14T15:42:25;9.70;99.90
61916;DHT22;47868;51.326;6.550;2022-11-14T15:44:52;9.80;99.90
61916;DHT22;47868;51.326;6.550;2022-11-14T15:47:38;9.80;99.90
61916;DHT22;47868;51.326;6.550;2022-11-14T15:52:38;9.70;99.90
61916;DHT22;47868;51.326;6.550;2022-11-14T15:55:15;9.70;99.90
61916;DHT22;47868;51.326;6.550;2022-11-14T15:57:41;9.70;99.90
61916;DHT22;47868;51.326;6.550;2022-11-14T16:00:11;9.70;99.90
61916;DHT22;47868;51.326;6.550;2022-11-14T16:02:42;9.70;99.90
61916;DHT22;47868;51.326;6.550;2022-11-14T16:05:12;9.70;99.90
61916;DHT22;47868;51.326;6.550;2022-11-14T16:07:38;9.70;99.90
61916;DHT22;47868;51.326;6.550;2022-11-14T16:10:16;9.70;99.90
61916;DHT22;47868;51.326;6.550;2022-11-14T16:12:42;9.70;99.90
61916;DHT22;47868;51.326;6.550;2022-11-14T16:15:08;9.70;99.90
61916;DHT22;47868;51.326;6.550;2022-11-14T16:17:37;9.70;99.90
61916;DHT22;47868;51.326;6.550;2022-11-14T16:20:04;9.70;99.90
61916;DHT22;47868;51.326;6.550;2022-11-14T16:22:31;9.80;99.90
61916;DHT22;47868;51.326;6.550;2022-11-14T16:24:59;9.80;99.90
61916;DHT22;47868;51.326;6.550;2022-11-14T16:27:25;9.80;99.90
61916;DHT22;47868;51.326;6.550;2022-11-14T16:29:52;9.70;99.90
61916;DHT22;47868;51.326;6.550;2022-11-14T16:32:18;9.70;99.90
61916;DHT22;47868;51.326;6.550;2022-11-14T16:34:43;9.80;99.90
61916;DHT22;47868;51.326;6.550;2022-11-14T16:37:13;9.70;99.90
61916;DHT22;47868;51.326;6.550;2022-11-14T16:39:39;9.80;99.90
61916;DHT22;47868;51.326;6.550;2022-11-14T16:42:04;9.80;99.90
61916;DHT22;47868;51.326;6.550;2022-11-14T16:44:31;9.70;99.90
61916;DHT22;47868;51.326;6.550;2022-11-14T16:46:57;9.70;99.90
61916;DHT22;47868;51.326;6.550;2022-11-14T16:49:23;9.80;99.90
61916;DHT22;47868;51.326;6.550;2022-11-14T16:51:50;9.80;99.90
61916;DHT22;47868;51.326;6.550;2022-11-14T16:54:17;9.80;99.90
61916;DHT22;47868;51.326;6.550;2022-11-14T16:56:44;9.80;99.90
61916;DHT22;47868;51.326;6.550;2022-11-14T16:59:10;9.80;99.90
61916;DHT22;47868;51.326;6.550;2022-11-14T17:01:36;9.80;99.90
61916;DHT22;47868;51.326;6.550;2022-11-14T17:04:03;9.80;99.90
61916;DHT22;47868;51.326;6.550;2022-11-14T17:06:29;9.80;99.90
61916;DHT22;47868;51.326;6.550;2022-11-14T17:08:56;9.80;99.90
61916;DHT22;47868;51.326;6.550;2022-11-14T17:11:22;9.80;99.90
61916;DHT22;47868;51.326;6.550;2022-11-14T17:13:48;9.70;99.90
61916;DHT22;47868;51.326;6.550;2022-11-14T17:16:15;9.70;99.90
61916;DHT22;47868;51.326;6.550;2022-11-14T17:18:40;9.70;99.90
61916;DHT22;47868;51.326;6.550;2022-11-14T17:21:07;9.80;99.90
61916;DHT22;47868;51.326;6.550;2022-11-14T17:23:33;9.80;99.90
61916;DHT22;47868;51.326;6.550;2022-11-14T17:26:08;9.80;99.90
61916;DHT22;47868;51.326;6.550;2022-11-14T17:28:34;9.80;99.90
61916;DHT22;47868;51.326;6.550;2022-11-14T17:31:05;9.80;99.90
61916;DHT22;47868;51.326;6.550;2022-11-14T17:33:31;9.70;99.90
61916;DHT22;47868;51.326;6.550;2022-11-14T17:36:05;9.80;99.90
61916;DHT22;47868;51.326;6.550;2022-11-14T17:38:35;9.80;99.90
61916;DHT22;47868;51.326;6.550;2022-11-14T17:41:01;9.80;99.90
61916;DHT22;47868;51.326;6.550;2022-11-14T17:43:33;9.80;99.90
61916;DHT22;47868;51.326;6.550;2022-11-14T17:46:00;9.80;99.90
61916;DHT22;47868;51.326;6.550;2022-11-14T17:48:26;9.70;99.90
61916;DHT22;47868;51.326;6.550;2022-11-14T17:50:52;9.70;99.90
61916;DHT22;47868;51.326;6.550;2022-11-14T17:53:18;9.70;99.90
61916;DHT22;47868;51.326;6.550;2022-11-14T17:55:45;9.70;99.90
61916;DHT22;47868;51.326;6.550;2022-11-14T17:58:11;9.70;99.90
61916;DHT22;47868;51.326;6.550;2022-11-14T18:00:37;9.70;99.90